• Join FlightAware (Why Join?)
  • Login
  • US Flag 
10:46AM EDT


 

Airport Tracker/Info


-or-


 

Live Flight TrackerFlight Track Log ✈ SWA2166 ✈ 08-Apr-2013 ✈ KMDW - KPVD

Flight Track Log - Related Links

Times and Time Zones

All times are in EDT time to prevent confusion due to time zone crossing. See the SWA2166 flight status page for this flight to view local times or setup timezone preferences in your user account.

Time Position Orientation Groundspeed Altitude Reporting Facility
EDT Latitude Longitude Course Direction KTS MPH feet Rate Location/Type
10:44AM 41.8419 -87.7978 354° North 248 285 3,700  Level Chicago Center
10:45AM 41.8375 -87.6972 93° East 280 322 5,100 2,880 Climbing Chicago Center
10:46AM 41.8489 -87.5742 83° East 326 375 9,700 4,320 Climbing Chicago Center
10:47AM 41.8450 -87.4536 92° East 326 375 14,100 3,180 Climbing Chicago Center
10:48AM 41.8172 -87.3281 106° East 347 399 16,300 2,220 Climbing Chicago Center
10:50AM 41.8384 -87.1460 84° East  Level FlightAware Approximate
10:50AM 41.8297 -86.9919 84° East 423 487 21,000  Level Chicago Center
10:51AM 41.8433 -86.8356 83° East 423 487 22,200 2,340 Climbing Chicago Center
10:52AM 41.8553 -86.6875 84° East 436 502 25,900 2,940 Climbing Chicago Center
10:53AM 41.8803 -86.5256 78° East 446 513 28,300 2,340 Climbing Chicago Center
10:55AM 41.9178 -86.3597 73° East 462 532 30,700 2,760 Climbing Chicago Center
10:56AM 41.9614 -86.1536 74° East 474 545 34,000 2,160 Climbing Chicago Center
10:57AM 41.9758 -85.9769 84° East 484 557 35,200 1,320 Climbing Chicago Center
10:58AM 41.9858 -85.7903 86° East 497 572 36,800 1,620 Climbing Chicago Center
10:59AM 41.9983 -85.6011 85° East 504 580 38,600 1,380 Climbing Chicago Center
11:00AM 42.0081 -85.4319 86° East 507 583 39,700 1,140 Climbing Chicago Center
11:01AM 42.0231 -85.2069 85° East 511 588 41,000 600 Climbing Cleveland Center
11:02AM 42.0325 -85.0258 86° East 500 575 41,000  Level Cleveland Center
11:03AM 42.0433 -84.8447 85° East 495 570 41,000  Level Cleveland Center
11:04AM 42.0519 -84.6636 86° East 489 563 41,000  Level Cleveland Center
11:05AM 42.0622 -84.4878 85° East 479 551 41,000  Level Cleveland Center
11:06AM 42.0706 -84.3067 86° East 474 545 41,000  Level Cleveland Center
11:07AM 42.0714 -84.1472 90° East 474 545 41,000  Level Cleveland Center
11:08AM 42.0808 -83.9714 86° East 474 545 41,000  Level Cleveland Center
11:09AM 42.0881 -83.7925 87° East 474 545 41,000  Level Cleveland Center
11:10AM 42.0928 -83.6194 88° East 474 545 41,000  Level Cleveland Center
11:11AM 42.1019 -83.4211 86° East 479 551 41,000  Level Cleveland Center
11:12AM 42.1083 -83.2450 87° East 473 544 41,000  Level Cleveland Center
11:13AM 42.1144 -83.0633 87° East 478 550 41,000  Level Cleveland Center
11:14AM 42.1308 -82.8819 83° East 478 550 41,000  Level Cleveland Center
11:15AM 42.1489 -82.7061 82° East 478 550 41,000  Level Cleveland Center
11:16AM 42.1622 -82.5300 84° East 478 550 41,000  Level Cleveland Center
11:17AM 42.1756 -82.3539 84° East 478 550 41,000  Level Cleveland Center
11:18AM 42.1886 -82.1750 84° East 478 550 41,000  Level Cleveland Center
11:19AM 42.2053 -82.0183 82° East 478 550 41,000  Level Cleveland Center
11:20AM 42.2200 -81.8392 84° East 478 550 41,000  Level Cleveland Center
11:21AM 42.2344 -81.6433 84° East 478 550 41,000  Level Cleveland Center
11:22AM 42.2483 -81.4611 84° East 484 557 41,000  Level Cleveland Center
11:23AM 42.2622 -81.2817 84° East 484 557 41,000  Level Cleveland Center
11:24AM 42.2736 -81.0967 85° East 484 557 41,000  Level Cleveland Center
11:25AM 42.2867 -80.9114 84° East 484 557 41,000  Level Cleveland Center
11:26AM 42.2997 -80.7319 84° East 484 557 41,000  Level Cleveland Center
11:27AM 42.3122 -80.5522 85° East 477 549 41,000  Level Cleveland Center
11:28AM 42.3225 -80.3867 85° East 482 555 41,000  Level Cleveland Center
11:29AM 42.3344 -80.2097 85° East 477 549 41,000  Level Cleveland Center
11:30AM 42.3464 -80.0325 85° East 477 549 41,000  Level Cleveland Center
11:31AM 42.3578 -79.8497 85° East 477 549 41,000  Level Cleveland Center
11:32AM 42.3669 -79.6756 86° East 477 549 41,000  Level Cleveland Center
11:33AM 42.3800 -79.4956 84° East 477 549 41,000  Level Cleveland Center
11:34AM 42.3867 -79.3181 87° East 477 549 41,000  Level Cleveland Center
11:35AM 42.3969 -79.1381 86° East 477 549 41,000  Level Cleveland Center
11:36AM 42.4072 -78.9578 86° East 477 549 41,000  Level Cleveland Center
11:37AM 42.4169 -78.7775 86° East 477 549 41,000  Level Cleveland Center
11:38AM 42.4286 -78.5944 85° East 482 555 41,000  Level Cleveland Center
11:39AM 42.4356 -78.4086 87° East 482 555 41,000  Level Cleveland Center
11:40AM 42.4444 -78.2253 86° East 482 555 41,000  Level Cleveland Center
11:43AM 42.4689 -77.6428 87° East 494 568 41,000  Level Boston Center
11:44AM 42.4750 -77.4575 87° East 494 568 41,000  Level Boston Center
11:45AM 42.4831 -77.2750 87° East 494 568 41,000  Level Boston Center
11:46AM 42.4925 -77.0953 86° East 475 547 41,000  Level Boston Center
11:47AM 42.4978 -76.9097 88° East 475 547 41,000  Level Boston Center
11:48AM 42.5028 -76.7269 88° East 475 547 41,000  Level Boston Center
11:49AM 42.5097 -76.5442 87° East 481 554 41,000  Level Boston Center
11:50AM 42.5142 -76.3558 88° East 486 559 41,000  Level Boston Center
11:51AM 42.5031 -76.1917 95° East 492 566 41,000  Level Boston Center
11:52AM 42.4883 -76.0050 96° East 492 566 41,000  Level Boston Center
11:53AM 42.4794 -75.8186 94° East 492 566 41,000 -540 Level Boston Center
11:54AM 42.4661 -75.6319 95° East 497 572 40,000 -1,020 Descending Boston Center
11:55AM 42.4525 -75.4428 96° East 505 581 39,000 -960 Descending Boston Center
11:56AM 42.4403 -75.2650 95° East 493 567 38,100 -1,020 Descending Boston Center
11:57AM 42.4278 -75.0897 95° East 481 554 37,100 -1,020 Descending Boston Center
11:58AM 42.4131 -74.9119 96° East 481 554 36,200 -1,860 Descending Boston Center
11:59AM 42.3986 -74.7119 96° East 482 555 33,400 -2,580 Descending Boston Center
12:00PM 42.3833 -74.5314 96° East 482 555 31,000 -2,160 Descending Boston Center
12:01PM 42.3736 -74.3736 95° East 477 549 29,100 -1,200 Descending Boston Center
12:02PM 42.3600 -74.1764 95° East 457 526 28,400 -780 Descending Boston Center
12:03PM 42.3456 -74.0244 97° East 434 499 27,400 -1,020 Descending Boston Center
12:04PM 42.3331 -73.8725 96° East 418 481 26,400 -960 Descending Boston Center
12:05PM 42.3203 -73.7206 96° East 412 474 25,500 -960 Descending Boston Center
12:06PM 42.3094 -73.5575 95° East 424 488 24,500 -1,020 Descending Boston Center
12:07PM 42.2964 -73.4000 96° East 424 488 23,500 -1,020 Descending Boston Center
12:08PM 42.2786 -73.2511 99° East 419 482 22,600 -1,140 Descending Boston Center
12:09PM 42.2339 -73.0992 112° Southeast 407 468 21,300 -1,140 Descending Boston Center
12:10PM 42.1594 -72.9892 132° Southeast 387 445 20,400 -960 Descending Boston Center
12:11PM 42.0828 -72.8819 134° Southeast 392 451 19,400 -720 Descending Boston Center
12:12PM 42.0081 -72.7839 136° Southeast 387 445 19,000 -240 Descending Boston Center
12:13PM 41.9353 -72.6800 133° Southeast 382 440 19,000 -540 Level Boston Center
12:14PM 41.8708 -72.5628 126° Southeast 382 440 18,000 -1,440 Descending Boston Center
12:15PM 41.8086 -72.4539 127° Southeast 382 440 16,100 -2,100 Descending Boston Center
12:16PM 41.7458 -72.3400 126° Southeast 382 440 13,800 -2,100 Descending Boston Center
12:17PM 41.6894 -72.2317 125° Southeast 365 420 12,000 -1,440 Descending Boston Center
12:17PM 41.6644 -72.1956 133° Southeast 351 404 11,900 -420 Descending Boston Center
12:18PM 41.6331 -72.1317 123° Southeast 353 406 11,600 -900 Descending Boston Center
12:19PM 41.5786 -72.0406 129° Southeast 328 377 10,500 -1,260 Descending Boston Center
12:20PM 41.5261 -71.9467 127° Southeast 315 362 9,100 -1,680 Descending Boston Center
12:21PM 41.4964 -71.8442 111° Southeast 305 351 7,300 -1,740 Descending Boston Center
12:22PM 41.4664 -71.7169 107° East 303 349 5,400 -1,380 Descending Boston Center
12:23PM 41.4928 -71.6142 71° East 278 320 4,300 -1,020 Descending Boston Center
12:24PM 41.5425 -71.5747 31° Northeast 224 258 3,400 -900 Descending Boston Center
12:25PM 41.5944 -71.5353 30° Northeast 195 224 2,600 -840 Descending Boston Center
12:26PM 41.6358 -71.5014 31° Northeast 175 201 1,800 -780 Descending Boston Center
12:27PM 41.6711 -71.4731 31° Northeast 158 182 1,100 -780 Descending Boston Center
12:28PM 41.7019 -71.4447 34° Northeast 139 160 300 -540 Descending Boston Center
12:29PM 41.7311 -71.4219 30° Northeast 139 160 100 9,240 Descending Boston Center
12:30PM 41.7619 -71.3936 34° Northeast 139 160 19,000 9,360 Climbing Boston Center
12:31PM 41.7931 -71.3653 34° Northeast 139 160 19,000  Level Boston Center
12:32PM 41.8239 -71.3369 34° Northeast 139 160 19,000  Level Boston Center
12:34PM 41.7167 -71.4167 217° Southwest  Level FlightAware Approximate
12:41PM 41.7240 -71.4282 217° Southwest  Level Estimated